createdAt,value
2018-11-07T00:02:07.406Z,22.9
2018-11-07T00:12:06.613Z,23.2
2018-11-07T00:22:05.832Z,23.1
2018-11-07T00:32:05.040Z,22.9
2018-11-07T00:42:04.255Z,22.9
2018-11-07T00:52:03.470Z,23.1
2018-11-07T01:02:02.682Z,22.9
2018-11-07T01:12:01.897Z,23.1
2018-11-07T01:22:01.108Z,22.9
2018-11-07T01:32:00.319Z,22.6
2018-11-07T01:41:59.587Z,23.1
2018-11-07T01:51:58.749Z,23
2018-11-07T02:01:57.960Z,23.3
2018-11-07T02:11:57.172Z,23.2
2018-11-07T02:21:56.380Z,23
2018-11-07T02:31:55.600Z,22.4
2018-11-07T02:41:54.906Z,22.9
2018-11-07T02:51:54.079Z,22.8
2018-11-07T03:01:53.232Z,22.6
2018-11-07T03:11:52.444Z,23.1
2018-11-07T03:21:51.662Z,22.9
2018-11-07T03:31:50.874Z,22.8
2018-11-07T03:41:50.086Z,23.4
2018-11-07T03:51:49.298Z,23.5
2018-11-07T04:01:48.507Z,23.4
2018-11-07T04:11:47.725Z,23.1
2018-11-07T04:21:46.934Z,22.9
2018-11-07T04:31:46.151Z,23.1
2018-11-07T04:41:45.357Z,23
2018-11-07T04:51:44.577Z,22.9
2018-11-07T05:01:43.790Z,22.9
2018-11-07T05:11:43.000Z,22.6
2018-11-07T05:21:42.219Z,23
2018-11-07T05:31:41.440Z,22.8
2018-11-07T05:41:40.698Z,22.8
2018-11-07T05:51:39.863Z,22.6
2018-11-07T06:01:39.079Z,23.1
2018-11-07T06:11:38.290Z,23.6
2018-11-07T06:21:37.507Z,23.6
2018-11-07T06:31:36.716Z,23.6
2018-11-07T06:41:35.936Z,23.8
2018-11-07T06:51:35.144Z,23.7
2018-11-07T07:01:34.364Z,24
2018-11-07T07:11:33.573Z,24.4
2018-11-07T07:21:32.788Z,24.4
2018-11-07T07:31:32.020Z,24.4
2018-11-07T07:41:31.229Z,24.7
2018-11-07T07:51:30.447Z,25
2018-11-07T08:01:29.660Z,25.4
2018-11-07T08:11:28.874Z,25.8
2018-11-07T08:21:28.090Z,25.9
2018-11-07T08:31:27.295Z,26.1
2018-11-07T08:41:26.511Z,25.8
2018-11-07T08:51:25.726Z,24.9
2018-11-07T09:01:25.030Z,24.3
2018-11-07T09:11:24.161Z,24.4
2018-11-07T09:21:23.383Z,24.3
2018-11-07T09:31:22.588Z,24
2018-11-07T09:41:21.798Z,24.3
2018-11-07T09:51:21.026Z,24.3
2018-11-07T10:01:20.228Z,24.3
2018-11-07T10:11:19.442Z,24.8
2018-11-07T10:21:18.761Z,24.6
2018-11-07T10:31:17.869Z,24.8
2018-11-07T10:41:17.088Z,24.8
2018-11-07T10:51:16.302Z,24.1
2018-11-07T11:01:15.569Z,24.3
2018-11-07T11:11:14.823Z,24.3
2018-11-07T11:21:13.948Z,24.6
2018-11-07T11:31:13.159Z,24.4
2018-11-07T11:41:12.534Z,24.5
2018-11-07T11:51:11.620Z,24.6
2018-11-07T12:01:10.811Z,24.3
2018-11-07T12:11:10.018Z,24.4
2018-11-07T12:21:09.263Z,24.4
2018-11-07T12:31:08.457Z,24
2018-11-07T12:41:07.659Z,23.8
2018-11-07T12:51:06.878Z,24
2018-11-07T13:01:06.088Z,24.1
2018-11-07T13:11:05.308Z,24.3
2018-11-07T13:21:04.526Z,24.3
2018-11-07T13:31:03.730Z,23.9
2018-11-07T13:41:02.973Z,23.6
2018-11-07T13:51:02.159Z,23.6
2018-11-07T14:01:01.373Z,23.6
2018-11-07T14:11:00.588Z,23.4
2018-11-07T14:20:59.808Z,23.5
2018-11-07T14:30:59.017Z,23.4
2018-11-07T14:40:58.227Z,23.3
2018-11-07T14:50:57.440Z,23.3
2018-11-07T15:00:56.650Z,23.1
2018-11-07T15:10:55.861Z,23.4
2018-11-07T15:20:55.073Z,23.1
2018-11-07T15:30:54.294Z,23.2
2018-11-07T15:40:53.500Z,23
2018-11-07T15:50:52.720Z,22.8
2018-11-07T16:00:51.930Z,22.9
2018-11-07T16:10:51.144Z,23.2
2018-11-07T16:20:50.447Z,23.2
2018-11-07T16:30:49.565Z,22.7
2018-11-07T16:40:48.873Z,23.1
2018-11-07T16:50:47.990Z,23.6
2018-11-07T17:00:47.207Z,23.9
2018-11-07T17:10:46.417Z,23.4
2018-11-07T17:20:45.716Z,23.3
2018-11-07T17:30:44.848Z,23
2018-11-07T17:40:44.063Z,23.1
2018-11-07T17:50:43.276Z,23.1
2018-11-07T18:00:42.489Z,22.8
2018-11-07T18:10:41.711Z,23.3
2018-11-07T18:20:40.920Z,24.1
2018-11-07T18:30:40.139Z,23.6
2018-11-07T18:40:39.349Z,23.2
2018-11-07T18:50:38.649Z,22.8
2018-11-07T19:00:37.780Z,23.1
2018-11-07T19:10:37.003Z,22.9
2018-11-07T19:20:36.287Z,22.8
2018-11-07T19:30:35.433Z,22.9
2018-11-07T19:40:34.638Z,22.9
2018-11-07T19:50:33.862Z,22.8
2018-11-07T20:00:33.068Z,22.8
2018-11-07T20:10:32.283Z,22.9
2018-11-07T20:20:31.502Z,23.1
2018-11-07T20:30:30.719Z,23.3
2018-11-07T20:40:29.934Z,23.2
2018-11-07T20:50:29.147Z,22.9
2018-11-07T21:00:28.366Z,22.9
2018-11-07T21:10:27.574Z,23.2
2018-11-07T21:20:26.799Z,23.1
2018-11-07T21:30:26.003Z,22.5
2018-11-07T21:40:25.222Z,22.9
2018-11-07T21:50:24.438Z,22.8
2018-11-07T22:00:23.654Z,22.6
2018-11-07T22:10:22.867Z,23
2018-11-07T22:20:22.075Z,22.8
2018-11-07T22:30:21.291Z,22.8
2018-11-07T22:40:20.502Z,23.1
2018-11-07T22:50:19.720Z,22.6
2018-11-07T23:00:18.944Z,22.8
2018-11-07T23:10:18.152Z,22.9
2018-11-07T23:20:17.363Z,23
2018-11-07T23:30:16.569Z,23
2018-11-07T23:40:15.786Z,23.1
